createdAt,value
2023-05-19T00:02:27.239Z,2.28
2023-05-19T00:04:56.047Z,2.10
2023-05-19T00:07:26.441Z,2.83
2023-05-19T00:09:55.281Z,2.30
2023-05-19T00:12:23.762Z,2.13
2023-05-19T00:14:53.910Z,2.42
2023-05-19T00:17:22.537Z,1.88
2023-05-19T00:19:50.870Z,2.20
2023-05-19T00:22:19.293Z,2.30
2023-05-19T00:24:47.767Z,2.38
2023-05-19T00:27:16.268Z,2.10
2023-05-19T00:29:44.742Z,2.08
2023-05-19T00:32:15.802Z,2.22
2023-05-19T00:34:44.312Z,2.30
2023-05-19T00:37:12.628Z,2.35
2023-05-19T00:39:41.051Z,2.70
2023-05-19T00:42:09.378Z,1.98
2023-05-19T00:44:40.785Z,2.75
2023-05-19T00:47:09.448Z,2.25
2023-05-19T00:49:39.196Z,2.60
2023-05-19T00:52:08.772Z,2.20
2023-05-19T00:54:37.754Z,2.25
2023-05-19T00:57:06.287Z,2.03
2023-05-19T00:59:34.732Z,2.00
2023-05-19T01:02:03.392Z,2.20
2023-05-19T01:04:34.883Z,2.30
2023-05-19T01:07:05.130Z,2.33
2023-05-19T01:09:33.955Z,2.65
2023-05-19T01:12:02.562Z,2.00
2023-05-19T01:14:31.753Z,2.03
2023-05-19T01:17:06.601Z,2.45
2023-05-19T01:19:43.731Z,2.10
2023-05-19T01:22:25.583Z,2.00
2023-05-19T01:25:10.796Z,2.40
2023-05-19T01:27:54.121Z,2.20
2023-05-19T01:30:28.231Z,1.77
2023-05-19T01:32:58.939Z,1.98
2023-05-19T01:35:28.295Z,1.95
2023-05-19T01:37:57.600Z,1.90
2023-05-19T01:40:26.718Z,2.30
2023-05-19T01:42:57.563Z,2.15
2023-05-19T01:45:29.480Z,1.70
2023-05-19T01:48:00.172Z,1.73
2023-05-19T01:50:28.699Z,1.92
2023-05-19T01:52:57.358Z,1.85
2023-05-19T01:55:25.806Z,2.17
2023-05-19T01:58:02.347Z,2.05
2023-05-19T02:00:38.183Z,1.90
2023-05-19T02:03:10.845Z,1.98
2023-05-19T02:05:42.390Z,1.90
2023-05-19T02:08:14.674Z,1.80
2023-05-19T02:10:45.563Z,1.92
2023-05-19T02:13:15.478Z,1.83
2023-05-19T02:15:47.109Z,2.10
2023-05-19T02:18:17.841Z,2.20
2023-05-19T02:20:46.459Z,1.98
2023-05-19T02:23:14.885Z,2.03
2023-05-19T02:25:43.496Z,2.47
2023-05-19T02:28:11.815Z,2.42
2023-05-19T02:30:40.289Z,2.40
2023-05-19T02:33:12.117Z,1.80
2023-05-19T02:35:49.322Z,2.10
2023-05-19T02:38:18.042Z,2.05
2023-05-19T02:40:46.565Z,2.38
2023-05-19T02:43:15.019Z,2.25
2023-05-19T02:45:43.400Z,2.80
2023-05-19T02:48:13.398Z,2.25
2023-05-19T02:50:42.988Z,2.20
2023-05-19T02:53:11.341Z,2.40
2023-05-19T02:55:39.716Z,1.80
2023-05-19T02:58:08.216Z,2.20
2023-05-19T03:00:36.676Z,2.03
2023-05-19T03:03:05.215Z,2.05
2023-05-19T03:05:35.042Z,2.25
2023-05-19T03:08:03.466Z,2.30
2023-05-19T03:10:32.274Z,2.20
2023-05-19T03:13:00.969Z,2.00
2023-05-19T03:15:30.716Z,2.25
2023-05-19T03:17:59.226Z,1.80
2023-05-19T03:20:27.543Z,1.90
2023-05-19T03:22:57.277Z,1.90
2023-05-19T03:25:26.071Z,2.10
2023-05-19T03:27:55.217Z,2.28
2023-05-19T03:30:23.781Z,2.30
2023-05-19T03:33:05.402Z,2.30
2023-05-19T03:35:33.986Z,1.90
2023-05-19T03:38:03.813Z,2.00
2023-05-19T03:40:32.514Z,1.95
2023-05-19T03:43:07.185Z,2.20
2023-05-19T03:45:41.649Z,2.08
2023-05-19T03:48:30.107Z,2.45
2023-05-19T03:51:21.555Z,2.30
2023-05-19T03:53:56.025Z,2.22
2023-05-19T03:56:26.488Z,1.92
2023-05-19T03:58:55.869Z,2.03
2023-05-19T04:01:24.329Z,2.03
2023-05-19T04:03:52.735Z,2.45
2023-05-19T04:06:21.062Z,2.22
2023-05-19T04:08:49.563Z,2.47
2023-05-19T04:11:19.986Z,2.25
2023-05-19T04:13:48.707Z,2.28
2023-05-19T04:16:17.326Z,2.00
2023-05-19T04:18:49.510Z,2.15
2023-05-19T04:21:18.038Z,1.92
2023-05-19T04:23:46.417Z,2.38
2023-05-19T04:26:16.085Z,2.15
2023-05-19T04:28:48.293Z,2.22
2023-05-19T04:31:16.967Z,2.30
2023-05-19T04:33:46.095Z,2.10
2023-05-19T04:36:14.494Z,2.58
2023-05-19T04:38:45.925Z,2.33
2023-05-19T04:41:16.717Z,2.30
2023-05-19T04:43:48.428Z,2.47
2023-05-19T04:46:16.963Z,2.20
2023-05-19T04:48:46.658Z,2.85
2023-05-19T04:51:15.110Z,2.10
2023-05-19T04:53:43.536Z,2.10
2023-05-19T04:56:15.286Z,2.38
2023-05-19T04:58:44.772Z,2.28
2023-05-19T05:01:15.730Z,1.90
2023-05-19T05:03:45.086Z,2.50
2023-05-19T05:06:13.600Z,2.42
2023-05-19T05:08:42.602Z,2.17
2023-05-19T05:11:11.544Z,2.40
2023-05-19T05:13:41.411Z,2.70
2023-05-19T05:16:11.238Z,2.75
2023-05-19T05:18:44.624Z,2.35
2023-05-19T05:21:13.922Z,2.70
2023-05-19T05:23:42.530Z,2.28
2023-05-19T05:26:12.257Z,2.60
2023-05-19T05:28:40.884Z,2.63
2023-05-19T05:31:09.282Z,2.40
2023-05-19T05:33:38.391Z,2.63
2023-05-19T05:36:08.721Z,2.75
2023-05-19T05:38:37.267Z,2.60
2023-05-19T05:41:05.813Z,2.50
2023-05-19T05:43:35.869Z,2.75
2023-05-19T05:46:06.045Z,2.50
2023-05-19T05:48:34.794Z,2.47
2023-05-19T05:51:03.526Z,2.65
2023-05-19T05:53:38.719Z,2.50
2023-05-19T05:56:07.985Z,1.95
2023-05-19T05:58:45.603Z,3.00
2023-05-19T06:01:18.225Z,3.08
2023-05-19T06:03:48.323Z,2.35
2023-05-19T06:06:23.741Z,2.65
2023-05-19T06:08:56.119Z,2.00
2023-05-19T06:11:26.155Z,1.75
2023-05-19T06:13:55.898Z,1.90
2023-05-19T06:16:44.515Z,2.38
2023-05-19T06:19:13.669Z,2.42
2023-05-19T06:21:42.865Z,2.53
2023-05-19T06:24:12.568Z,2.38
2023-05-19T06:26:41.022Z,2.20
2023-05-19T06:29:09.392Z,2.00
2023-05-19T06:31:37.949Z,1.83
2023-05-19T06:34:12.404Z,2.20
2023-05-19T06:36:41.506Z,2.17
2023-05-19T06:39:10.970Z,2.33
2023-05-19T06:41:40.791Z,2.20
2023-05-19T06:44:09.794Z,2.78
2023-05-19T06:46:38.296Z,2.10
2023-05-19T06:49:07.030Z,2.17
2023-05-19T06:51:41.264Z,2.00
2023-05-19T06:54:11.029Z,2.00
2023-05-19T06:56:40.858Z,2.08
2023-05-19T06:59:09.248Z,2.13
2023-05-19T07:01:41.272Z,1.70
2023-05-19T07:04:17.453Z,2.00
2023-05-19T07:06:47.140Z,1.67
2023-05-19T07:09:15.862Z,1.83
2023-05-19T07:11:46.261Z,1.80
2023-05-19T07:14:14.730Z,2.10
2023-05-19T07:16:43.431Z,2.00
2023-05-19T07:19:11.887Z,2.15
2023-05-19T07:21:40.233Z,2.22
2023-05-19T07:24:08.743Z,1.73
2023-05-19T07:26:37.052Z,1.85
2023-05-19T07:29:06.724Z,2.17
2023-05-19T07:31:35.140Z,2.08
2023-05-19T07:34:03.553Z,2.03
2023-05-19T07:36:32.285Z,2.00
2023-05-19T07:39:00.869Z,1.95
2023-05-19T07:41:29.507Z,2.00
2023-05-19T07:43:57.851Z,2.00
2023-05-19T07:46:27.752Z,2.00
2023-05-19T07:48:56.295Z,2.35
2023-05-19T07:51:27.872Z,2.03
2023-05-19T07:53:58.575Z,1.88
2023-05-19T07:56:27.710Z,1.92
2023-05-19T07:58:56.296Z,1.50
2023-05-19T08:01:29.743Z,1.80
2023-05-19T08:04:03.566Z,2.10
2023-05-19T08:06:35.936Z,2.08
2023-05-19T08:09:05.873Z,2.15
2023-05-19T08:11:34.410Z,1.90
2023-05-19T08:14:02.805Z,2.00
2023-05-19T08:16:31.264Z,1.85
2023-05-19T08:19:02.685Z,2.00
2023-05-19T08:21:31.236Z,1.77
2023-05-19T08:23:59.537Z,1.85
2023-05-19T08:26:27.953Z,1.73
2023-05-19T08:28:56.345Z,2.08
2023-05-19T08:31:24.851Z,2.17
2023-05-19T08:33:53.281Z,2.03
2023-05-19T08:36:23.035Z,1.42
2023-05-19T08:38:51.442Z,1.63
2023-05-19T08:41:19.791Z,1.95
2023-05-19T08:43:48.127Z,1.40
2023-05-19T08:46:16.945Z,1.45
2023-05-19T08:48:46.350Z,1.92
2023-05-19T08:51:19.628Z,1.38
2023-05-19T08:53:50.363Z,1.65
2023-05-19T08:56:22.003Z,1.70
2023-05-19T08:58:51.184Z,1.70
2023-05-19T09:01:20.448Z,1.38
2023-05-19T09:03:53.604Z,1.58
2023-05-19T09:06:26.143Z,1.30
2023-05-19T09:08:55.931Z,1.48
2023-05-19T09:11:24.379Z,1.73
2023-05-19T09:13:52.904Z,1.73
2023-05-19T09:16:21.546Z,1.70
2023-05-19T09:18:56.941Z,1.50
2023-05-19T09:21:31.974Z,1.60
2023-05-19T09:24:06.000Z,2.03
2023-05-19T09:26:38.488Z,1.40
2023-05-19T09:29:13.387Z,1.65
2023-05-19T09:31:42.013Z,2.00
2023-05-19T09:34:13.866Z,1.42
2023-05-19T09:36:42.727Z,1.77
2023-05-19T09:39:18.687Z,1.60
2023-05-19T09:41:49.203Z,1.63
2023-05-19T09:44:24.937Z,1.42
2023-05-19T09:46:56.849Z,1.35
2023-05-19T09:49:29.746Z,1.63
2023-05-19T09:51:58.765Z,1.67
2023-05-19T09:54:29.850Z,1.80
2023-05-19T09:56:59.724Z,1.60
2023-05-19T09:59:31.332Z,1.20
2023-05-19T10:02:06.726Z,1.60
2023-05-19T10:04:36.755Z,1.30
2023-05-19T10:07:13.018Z,1.92
2023-05-19T10:09:45.424Z,2.00
2023-05-19T10:12:16.728Z,1.50
2023-05-19T10:14:45.191Z,1.48
2023-05-19T10:17:14.001Z,1.77
2023-05-19T10:19:42.983Z,1.77
2023-05-19T10:22:11.326Z,1.70
2023-05-19T10:24:39.697Z,1.63
2023-05-19T10:27:12.260Z,1.80
2023-05-19T10:29:42.476Z,1.63
2023-05-19T10:32:13.048Z,1.80
2023-05-19T10:34:57.053Z,1.90
2023-05-19T10:37:29.488Z,1.80
2023-05-19T10:39:58.675Z,1.65
2023-05-19T10:42:39.829Z,2.00
2023-05-19T10:45:15.150Z,1.83
2023-05-19T10:47:44.050Z,1.60
2023-05-19T10:50:12.826Z,1.65
2023-05-19T10:52:42.213Z,1.80
2023-05-19T10:55:17.457Z,1.80
2023-05-19T10:57:57.590Z,1.88
2023-05-19T11:00:33.007Z,1.73
2023-05-19T11:03:14.712Z,1.63
2023-05-19T11:05:45.495Z,2.13
2023-05-19T11:08:14.478Z,1.92
2023-05-19T11:10:46.470Z,1.92
2023-05-19T11:13:23.015Z,1.77
2023-05-19T11:15:51.657Z,1.95
2023-05-19T11:18:21.297Z,1.90
2023-05-19T11:20:58.544Z,1.70
2023-05-19T11:23:27.296Z,2.42
2023-05-19T11:25:55.767Z,2.13
2023-05-19T11:28:27.902Z,1.70
2023-05-19T11:30:57.587Z,1.90
2023-05-19T11:33:27.777Z,2.25
2023-05-19T11:35:57.936Z,2.03
2023-05-19T11:38:26.617Z,1.70
2023-05-19T11:40:55.200Z,1.88
2023-05-19T11:43:26.005Z,2.05
2023-05-19T11:45:55.625Z,1.80
2023-05-19T11:48:24.550Z,1.88
2023-05-19T11:50:53.412Z,1.90
2023-05-19T11:53:21.873Z,1.90
2023-05-19T11:55:50.758Z,1.73
2023-05-19T11:58:19.436Z,1.85
2023-05-19T12:00:52.540Z,1.75
2023-05-19T12:03:26.358Z,1.73
2023-05-19T12:05:55.362Z,1.80
2023-05-19T12:08:23.917Z,1.80
2023-05-19T12:10:54.063Z,1.83
2023-05-19T12:13:23.695Z,2.72
2023-05-19T12:15:54.155Z,2.15
2023-05-19T12:18:22.627Z,1.73
2023-05-19T12:20:51.268Z,1.80
2023-05-19T12:23:19.703Z,1.73
2023-05-19T12:25:48.268Z,1.92
2023-05-19T12:28:18.018Z,1.90
2023-05-19T12:30:49.214Z,2.00
2023-05-19T12:33:19.465Z,2.05
2023-05-19T12:35:49.920Z,1.92
2023-05-19T12:38:18.773Z,1.80
2023-05-19T12:40:47.220Z,1.98
2023-05-19T12:43:22.204Z,1.73
2023-05-19T12:45:50.872Z,1.67
2023-05-19T12:48:23.709Z,2.15
2023-05-19T12:50:54.214Z,1.90
2023-05-19T12:53:22.856Z,2.00
2023-05-19T12:55:54.256Z,1.73
2023-05-19T12:58:23.173Z,2.00
2023-05-19T13:00:52.715Z,1.80
2023-05-19T13:03:27.386Z,1.58
2023-05-19T13:05:55.825Z,1.65
2023-05-19T13:08:24.663Z,1.95
2023-05-19T13:10:53.211Z,1.70
2023-05-19T13:13:21.904Z,1.73
2023-05-19T13:15:50.435Z,1.88
2023-05-19T13:18:19.249Z,1.70
2023-05-19T13:20:50.294Z,1.67
2023-05-19T13:23:19.296Z,1.80
2023-05-19T13:25:47.925Z,1.58
2023-05-19T13:28:16.471Z,1.67
2023-05-19T13:30:45.806Z,1.58
2023-05-19T13:33:14.301Z,1.63
2023-05-19T13:35:42.652Z,1.40
2023-05-19T13:38:12.465Z,2.05
2023-05-19T13:40:41.636Z,1.60
2023-05-19T13:43:12.184Z,1.42
2023-05-19T13:45:42.144Z,1.70
2023-05-19T13:48:11.735Z,1.48
2023-05-19T13:50:40.115Z,1.45
2023-05-19T13:53:08.431Z,1.92
2023-05-19T13:55:38.240Z,1.48
2023-05-19T13:58:06.624Z,1.55
2023-05-19T14:00:36.319Z,1.85
2023-05-19T14:03:05.272Z,1.52
2023-05-19T14:05:33.875Z,1.65
2023-05-19T14:08:03.614Z,1.70
2023-05-19T14:10:32.352Z,1.58
2023-05-19T14:15:37.593Z,1.85
2023-05-19T14:18:07.062Z,1.70
2023-05-19T14:20:35.972Z,1.80
2023-05-19T14:23:04.761Z,1.88
2023-05-19T14:25:33.413Z,1.90
2023-05-19T14:28:03.316Z,2.03
2023-05-19T14:30:32.357Z,2.03
2023-05-19T14:33:01.143Z,2.30
2023-05-19T14:35:29.656Z,2.35
2023-05-19T14:37:58.035Z,2.00
2023-05-19T14:40:26.412Z,2.03
2023-05-19T14:42:54.762Z,1.60
2023-05-19T14:45:24.497Z,2.13
2023-05-19T14:47:56.558Z,1.98
2023-05-19T14:50:31.704Z,2.30
2023-05-19T14:53:00.318Z,1.90
2023-05-19T14:55:28.747Z,1.77
2023-05-19T14:57:57.110Z,2.03
2023-05-19T15:00:29.072Z,2.20
2023-05-19T15:03:00.939Z,1.90
2023-05-19T15:05:30.730Z,2.00
2023-05-19T15:07:59.340Z,1.90
2023-05-19T15:10:27.979Z,2.08
2023-05-19T15:12:57.595Z,2.00
2023-05-19T15:15:27.694Z,1.95
2023-05-19T15:17:56.279Z,2.65
2023-05-19T15:20:24.723Z,1.90
2023-05-19T15:22:53.286Z,2.00
2023-05-19T15:25:22.651Z,1.98
2023-05-19T15:27:51.476Z,2.10
2023-05-19T15:30:19.997Z,1.80
2023-05-19T15:32:50.728Z,1.98
2023-05-19T15:35:19.576Z,2.38
2023-05-19T15:37:47.998Z,2.05
2023-05-19T15:40:16.516Z,2.15
2023-05-19T15:42:44.910Z,2.17
2023-05-19T15:45:13.296Z,2.78
2023-05-19T15:47:41.714Z,2.30
2023-05-19T15:50:12.096Z,2.17
2023-05-19T15:52:40.420Z,2.28
2023-05-19T22:27:13.626Z,2.20
2023-05-19T22:29:42.039Z,2.20
2023-05-19T22:32:12.231Z,2.10
2023-05-19T22:34:40.931Z,1.75
2023-05-19T22:37:09.520Z,2.38
2023-05-19T22:39:38.111Z,2.33
2023-05-19T22:42:06.989Z,2.05
2023-05-19T22:44:36.887Z,2.20
2023-05-19T22:47:05.456Z,1.85
2023-05-19T22:49:33.903Z,1.95
2023-05-19T22:52:02.333Z,1.98
2023-05-19T22:54:30.939Z,1.88
2023-05-19T22:56:59.314Z,1.90
2023-05-19T22:59:27.704Z,2.08
2023-05-19T23:01:57.442Z,2.13
2023-05-19T23:04:28.715Z,2.35
2023-05-19T23:06:59.232Z,2.30
2023-05-19T23:09:28.854Z,2.30
2023-05-19T23:11:57.247Z,2.30
2023-05-19T23:14:25.963Z,2.58
2023-05-19T23:16:54.373Z,2.33
2023-05-19T23:19:24.304Z,2.20
2023-05-19T23:21:52.936Z,2.10
2023-05-19T23:24:21.364Z,2.30
2023-05-19T23:26:49.789Z,2.33
2023-05-19T23:29:18.184Z,2.60
2023-05-19T23:31:46.688Z,2.35
2023-05-19T23:34:15.158Z,2.33
2023-05-19T23:36:44.877Z,2.30
2023-05-19T23:39:13.528Z,2.22
2023-05-19T23:41:41.937Z,2.42
2023-05-19T23:44:10.563Z,2.10
2023-05-19T23:46:38.982Z,2.30
2023-05-19T23:49:07.416Z,2.47
2023-05-19T23:51:35.833Z,2.75
2023-05-19T23:54:05.708Z,2.30
2023-05-19T23:56:34.122Z,2.53
2023-05-19T23:59:03.054Z,2.67
